createdAt,value
2022-10-15T00:00:09.528Z,12.76
2022-10-15T00:02:38.597Z,12.77
2022-10-15T00:05:09.636Z,12.80
2022-10-15T00:07:40.355Z,12.78
2022-10-15T00:10:09.903Z,12.80
2022-10-15T00:12:38.999Z,12.81
2022-10-15T00:15:09.031Z,12.84
2022-10-15T00:17:38.545Z,12.84
2022-10-15T00:20:11.815Z,12.82
2022-10-15T00:22:41.014Z,12.87
2022-10-15T00:25:10.941Z,12.88
2022-10-15T00:27:40.113Z,12.88
2022-10-15T00:30:10.058Z,12.90
2022-10-15T00:32:39.034Z,12.90
2022-10-15T00:35:10.961Z,12.92
2022-10-15T00:37:39.950Z,12.93
2022-10-15T00:40:10.307Z,12.95
2022-10-15T00:42:39.280Z,12.96
2022-10-15T00:45:14.956Z,12.99
2022-10-15T00:47:48.474Z,13.00
2022-10-15T00:50:24.332Z,13.01
2022-10-15T00:53:02.102Z,13.03
2022-10-15T00:55:33.369Z,13.04
2022-10-15T00:58:07.272Z,13.05
2022-10-15T01:00:36.642Z,13.07
2022-10-15T01:03:05.844Z,13.14
2022-10-15T01:05:37.002Z,13.13
2022-10-15T01:08:06.062Z,13.16
2022-10-15T01:10:46.000Z,13.16
2022-10-15T01:13:33.805Z,13.21
2022-10-15T01:18:54.273Z,13.23
2022-10-15T01:21:30.459Z,13.23
2022-10-15T01:24:31.016Z,13.23
2022-10-15T01:27:21.829Z,13.21
2022-10-15T01:30:24.652Z,13.20
2022-10-15T01:33:20.941Z,13.22
2022-10-15T01:35:52.421Z,13.20
2022-10-15T01:38:36.532Z,13.21
2022-10-15T01:41:12.252Z,13.19
2022-10-15T01:43:47.884Z,13.18
2022-10-15T01:46:38.899Z,13.17
2022-10-15T01:49:14.454Z,13.15
2022-10-15T01:51:46.417Z,13.15
2022-10-15T01:54:19.220Z,13.14
2022-10-15T01:56:51.022Z,13.14
2022-10-15T01:59:26.355Z,13.12
2022-10-15T02:01:57.958Z,13.11
2022-10-15T02:04:31.170Z,13.07
2022-10-15T02:07:05.379Z,13.05
2022-10-15T02:09:46.241Z,13.03
2022-10-15T02:12:36.178Z,13.02
2022-10-15T02:15:11.680Z,13.02
2022-10-15T02:17:44.662Z,13.01
2022-10-15T02:20:20.917Z,12.98
2022-10-15T02:22:56.921Z,12.94
2022-10-15T02:25:28.496Z,12.89
2022-10-15T02:27:59.861Z,12.82
2022-10-15T02:30:30.968Z,12.78
2022-10-15T02:33:00.644Z,12.71
2022-10-15T02:35:31.274Z,12.71
2022-10-15T02:38:07.041Z,12.64
2022-10-15T02:40:38.476Z,12.61
2022-10-15T02:43:10.414Z,12.57
2022-10-15T02:45:39.681Z,12.55
2022-10-15T02:48:09.580Z,12.51
2022-10-15T02:50:40.015Z,12.44
2022-10-15T02:53:09.407Z,12.46
2022-10-15T02:55:38.926Z,12.46
2022-10-15T02:58:07.978Z,12.47
2022-10-15T03:00:36.998Z,12.44
2022-10-15T03:03:06.309Z,12.41
2022-10-15T03:05:36.416Z,12.37
2022-10-15T03:08:07.091Z,12.27
2022-10-15T03:10:37.429Z,12.26
2022-10-15T03:13:07.617Z,12.24
2022-10-15T03:15:44.405Z,12.24
2022-10-15T03:18:13.491Z,12.27
2022-10-15T03:20:42.743Z,12.25
2022-10-15T03:23:13.125Z,12.23
2022-10-15T03:25:42.796Z,12.18
2022-10-15T03:28:16.692Z,12.10
2022-10-15T03:30:45.742Z,12.07
2022-10-15T03:33:15.036Z,12.04
2022-10-15T03:35:44.245Z,11.98
2022-10-15T03:38:14.935Z,11.96
2022-10-15T03:40:46.359Z,11.87
2022-10-15T03:43:26.233Z,11.80
2022-10-15T03:45:55.401Z,11.86
2022-10-15T03:48:26.302Z,11.87
2022-10-15T03:50:55.582Z,11.84
2022-10-15T03:53:26.224Z,11.78
2022-10-15T03:55:56.093Z,11.76
2022-10-15T03:58:25.393Z,11.76
2022-10-15T04:00:58.807Z,11.75
2022-10-15T04:03:27.885Z,11.67
2022-10-15T04:05:58.717Z,11.64
2022-10-15T04:08:32.966Z,11.56
2022-10-15T04:11:02.399Z,11.46
2022-10-15T04:13:31.730Z,11.45
2022-10-15T04:16:01.250Z,11.42
2022-10-15T04:18:30.312Z,11.34
2022-10-15T04:21:00.422Z,11.26
2022-10-15T04:23:29.691Z,11.27
2022-10-15T04:26:18.882Z,11.24
2022-10-15T04:28:49.580Z,11.19
2022-10-15T04:31:19.513Z,11.21
2022-10-15T04:33:50.382Z,11.19
2022-10-15T04:36:19.608Z,11.22
2022-10-15T04:39:02.500Z,11.24
2022-10-15T04:41:39.337Z,11.24
2022-10-15T04:44:14.983Z,11.30
2022-10-15T04:46:50.023Z,11.35
2022-10-15T04:49:33.383Z,11.37
2022-10-15T04:52:05.089Z,11.34
2022-10-15T04:55:07.160Z,11.39
2022-10-15T04:57:37.502Z,11.35
2022-10-15T05:00:07.783Z,11.39
2022-10-15T05:02:36.854Z,11.40
2022-10-15T05:05:25.685Z,11.43
2022-10-15T05:08:01.859Z,11.45
2022-10-15T05:10:32.696Z,11.45
2022-10-15T05:13:07.567Z,11.47
2022-10-15T05:15:39.444Z,11.54
2022-10-15T05:18:11.402Z,11.57
2022-10-15T05:20:49.698Z,11.61
2022-10-15T05:23:21.248Z,11.61
2022-10-15T05:26:02.072Z,11.63
2022-10-15T05:28:32.911Z,11.62
2022-10-15T05:31:06.530Z,11.64
2022-10-15T05:33:35.784Z,11.64
2022-10-15T05:36:12.423Z,11.66
2022-10-15T05:38:41.381Z,11.67
2022-10-15T05:41:10.437Z,11.71
2022-10-15T05:43:41.518Z,11.68
2022-10-15T05:46:17.099Z,11.69
2022-10-15T05:48:50.522Z,11.68
2022-10-15T05:51:19.819Z,11.69
2022-10-15T05:53:52.577Z,11.68
2022-10-15T05:56:21.943Z,11.70
2022-10-15T05:58:52.851Z,11.72
2022-10-15T06:01:24.828Z,11.67
2022-10-15T06:03:54.018Z,11.69
2022-10-15T06:06:25.040Z,11.73
2022-10-15T06:08:55.056Z,11.73
2022-10-15T06:11:24.174Z,11.75
2022-10-15T06:13:54.458Z,11.76
2022-10-15T06:16:24.153Z,11.73
2022-10-15T06:18:54.142Z,11.74
2022-10-15T06:21:23.416Z,11.86
2022-10-15T06:23:52.418Z,11.79
2022-10-15T06:26:21.472Z,11.77
2022-10-15T06:28:52.866Z,11.75
2022-10-15T06:31:21.933Z,11.75
2022-10-15T06:33:51.004Z,11.74
2022-10-15T06:36:21.644Z,11.76
2022-10-15T06:38:50.759Z,11.78
2022-10-15T06:41:19.750Z,11.85
2022-10-15T06:46:26.505Z,11.85
2022-10-15T06:48:55.870Z,11.83
2022-10-15T06:51:24.851Z,11.86
2022-10-15T06:53:53.892Z,11.83
2022-10-15T06:56:22.938Z,11.87
2022-10-15T06:58:51.910Z,11.86
2022-10-15T07:01:20.906Z,11.83
2022-10-15T07:03:52.550Z,11.91
2022-10-15T07:06:21.541Z,11.92
2022-10-15T07:08:50.540Z,11.87
2022-10-15T07:11:19.528Z,11.83
2022-10-15T07:13:48.566Z,11.89
2022-10-15T07:16:17.514Z,11.78
2022-10-15T07:18:50.954Z,11.91
2022-10-15T07:21:19.929Z,11.89
2022-10-15T07:23:48.892Z,11.91
2022-10-15T07:26:17.961Z,11.97
2022-10-15T07:29:05.437Z,11.94
2022-10-15T07:31:34.699Z,11.95
2022-10-15T07:34:05.180Z,11.99
2022-10-15T07:36:34.151Z,11.94
2022-10-15T07:39:03.619Z,12.08
2022-10-15T07:41:33.653Z,12.10
2022-10-15T07:44:02.659Z,12.09
2022-10-15T07:46:31.757Z,12.10
2022-10-15T07:49:00.994Z,12.18
2022-10-15T07:51:31.345Z,12.16
2022-10-15T07:54:00.249Z,12.16
2022-10-15T07:56:29.322Z,12.25
2022-10-15T07:58:58.367Z,12.26
2022-10-15T08:01:27.424Z,12.27
2022-10-15T08:03:56.597Z,12.29
2022-10-15T08:06:27.110Z,12.35
2022-10-15T08:08:57.410Z,12.39
2022-10-15T08:11:30.133Z,12.51
2022-10-15T08:13:59.252Z,12.79
2022-10-15T08:16:28.303Z,12.93
2022-10-15T08:19:00.856Z,13.04
2022-10-15T08:21:29.861Z,12.98
2022-10-15T08:24:00.753Z,13.03
2022-10-15T08:26:35.589Z,13.19
2022-10-15T08:29:04.876Z,13.12
2022-10-15T08:31:34.042Z,12.99
2022-10-15T08:34:03.172Z,13.05
2022-10-15T08:36:32.551Z,12.88
2022-10-15T08:39:02.893Z,12.99
2022-10-15T08:41:38.635Z,12.91
2022-10-15T08:44:14.692Z,13.02
2022-10-15T08:46:48.314Z,13.18
2022-10-15T08:49:28.981Z,13.34
2022-10-15T08:52:09.920Z,13.36
2022-10-15T08:54:40.599Z,13.38
2022-10-15T08:57:19.082Z,13.55
2022-10-15T08:59:56.819Z,13.54
2022-10-15T09:02:30.506Z,13.67
2022-10-15T09:05:12.917Z,13.75
2022-10-15T09:07:50.916Z,13.87
2022-10-15T09:10:34.767Z,13.97
2022-10-15T09:13:10.374Z,13.95
2022-10-15T09:15:49.501Z,14.24
2022-10-15T09:18:23.635Z,14.08
2022-10-15T09:20:54.710Z,14.54
2022-10-15T09:23:27.877Z,14.87
2022-10-15T09:26:04.450Z,14.28
2022-10-15T09:28:41.966Z,14.32
2022-10-15T09:31:14.480Z,14.59
2022-10-15T09:33:49.590Z,14.52
2022-10-15T09:36:32.505Z,14.88
2022-10-15T09:39:13.395Z,15.31
2022-10-15T09:41:54.753Z,15.12
2022-10-15T09:44:25.761Z,14.84
2022-10-15T09:46:54.695Z,14.63
2022-10-15T09:49:31.231Z,14.55
2022-10-15T09:52:08.240Z,14.82
2022-10-15T09:54:46.219Z,14.90
2022-10-15T09:57:18.124Z,14.96
2022-10-15T09:59:57.722Z,15.16
2022-10-15T10:02:27.951Z,15.51
2022-10-15T10:04:57.964Z,15.35
2022-10-15T10:07:32.444Z,16.04
2022-10-15T10:10:04.114Z,16.48
2022-10-15T10:12:36.746Z,16.04
2022-10-15T10:15:09.784Z,16.93
2022-10-15T10:17:38.864Z,17.05
2022-10-15T10:20:19.791Z,17.08
2022-10-15T10:22:52.574Z,16.86
2022-10-15T10:25:38.948Z,17.30
2022-10-15T10:28:18.498Z,16.43
2022-10-15T10:31:03.249Z,15.34
2022-10-15T10:33:36.363Z,15.12
2022-10-15T10:36:07.509Z,16.26
2022-10-15T10:38:38.864Z,16.89
2022-10-15T10:41:09.923Z,15.50
2022-10-15T10:43:41.982Z,16.65
2022-10-15T10:46:20.106Z,16.25
2022-10-15T10:48:50.727Z,16.98
2022-10-15T10:51:21.925Z,16.64
2022-10-15T10:53:59.007Z,17.44
2022-10-15T10:56:32.169Z,17.97
2022-10-15T10:59:04.696Z,16.82
2022-10-15T11:01:33.714Z,17.51
2022-10-15T11:04:03.279Z,17.56
2022-10-15T11:06:55.979Z,17.29
2022-10-15T11:09:43.270Z,17.24
2022-10-15T11:12:29.517Z,16.52
2022-10-15T11:15:15.313Z,16.48
2022-10-15T11:17:53.100Z,15.86
2022-10-15T11:20:49.786Z,15.82
2022-10-15T11:23:33.912Z,15.69
2022-10-15T11:26:19.684Z,15.93
2022-10-15T11:29:10.130Z,16.29
2022-10-15T11:32:01.730Z,17.40
2022-10-15T11:34:53.218Z,17.86
2022-10-15T11:37:33.847Z,17.35
2022-10-15T11:40:25.829Z,17.87
2022-10-15T11:42:59.659Z,16.88
2022-10-15T11:45:48.532Z,16.79
2022-10-15T11:48:29.094Z,16.52
2022-10-15T11:51:03.647Z,16.88
2022-10-15T11:53:45.697Z,18.25
2022-10-15T11:56:18.999Z,18.76
2022-10-15T11:58:51.698Z,18.14
2022-10-15T12:01:26.157Z,18.18
2022-10-15T12:03:59.101Z,18.57
2022-10-15T12:06:32.211Z,18.27
2022-10-15T12:09:03.665Z,17.29
2022-10-15T12:11:45.196Z,16.83
2022-10-15T12:14:23.254Z,18.41
2022-10-15T12:17:04.833Z,18.33
2022-10-15T12:19:41.311Z,17.95
2022-10-15T12:22:12.212Z,17.03
2022-10-15T12:24:55.347Z,17.57
2022-10-15T12:27:30.699Z,17.22
2022-10-15T12:30:22.600Z,18.40
2022-10-15T12:32:52.444Z,18.91
2022-10-15T12:35:31.172Z,17.27
2022-10-15T12:38:22.684Z,17.36
2022-10-15T12:41:02.775Z,16.71
2022-10-15T12:43:37.652Z,16.91
2022-10-15T12:46:09.081Z,18.60
2022-10-15T12:48:40.493Z,19.01
2022-10-15T12:51:32.168Z,18.55
2022-10-15T12:54:02.533Z,18.96
2022-10-15T12:56:41.768Z,19.21
2022-10-15T12:59:31.885Z,17.67
2022-10-15T13:02:04.218Z,17.29
2022-10-15T13:04:43.151Z,17.75
2022-10-15T13:07:16.314Z,17.58
2022-10-15T13:09:45.308Z,18.09
2022-10-15T13:12:24.753Z,17.36
2022-10-15T13:14:57.785Z,17.24
2022-10-15T13:17:26.822Z,16.96
2022-10-15T13:19:59.990Z,16.79
2022-10-15T13:22:32.621Z,16.98
2022-10-15T13:25:01.573Z,17.01
2022-10-15T13:27:33.560Z,16.84
2022-10-15T13:30:08.624Z,16.94
2022-10-15T13:32:41.559Z,16.93
2022-10-15T13:35:14.091Z,16.79
2022-10-15T13:37:46.818Z,16.63
2022-10-15T13:40:22.395Z,16.55
2022-10-15T13:43:01.861Z,16.46
2022-10-15T13:45:31.427Z,16.49
2022-10-15T13:48:00.606Z,16.44
2022-10-15T13:50:31.452Z,16.44
2022-10-15T13:53:08.859Z,16.50
2022-10-15T13:55:41.744Z,16.46
2022-10-15T13:58:23.544Z,16.50
2022-10-15T14:01:00.532Z,16.46
2022-10-15T14:03:32.312Z,16.47
2022-10-15T14:06:19.398Z,16.59
2022-10-15T14:08:51.278Z,16.95
2022-10-15T14:11:20.694Z,17.99
2022-10-15T14:13:50.807Z,17.39
2022-10-15T14:16:23.166Z,17.57
2022-10-15T14:18:54.506Z,17.10
2022-10-15T14:21:28.910Z,16.99
2022-10-15T14:24:07.384Z,16.91
2022-10-15T14:26:36.666Z,16.83
2022-10-15T14:29:05.925Z,16.78
2022-10-15T14:31:40.531Z,16.65
2022-10-15T14:34:38.435Z,16.67
2022-10-15T14:37:41.366Z,16.43
2022-10-15T14:40:19.192Z,16.34
2022-10-15T14:42:49.721Z,16.27
2022-10-15T14:45:25.424Z,16.28
2022-10-15T14:47:57.366Z,16.23
2022-10-15T14:50:32.019Z,16.19
2022-10-15T14:53:06.355Z,16.36
2022-10-15T14:55:40.566Z,16.38
2022-10-15T14:58:11.149Z,16.44
2022-10-15T15:00:43.855Z,16.31
2022-10-15T15:03:16.850Z,16.21
2022-10-15T15:05:47.984Z,16.10
2022-10-15T15:08:17.325Z,16.03
2022-10-15T15:13:25.788Z,16.02
2022-10-15T15:15:55.233Z,16.03
2022-10-15T15:18:24.672Z,15.98
2022-10-15T15:21:02.485Z,15.98
2022-10-15T15:23:32.280Z,15.98
2022-10-15T15:26:02.801Z,16.07
2022-10-15T15:28:31.933Z,16.05
2022-10-15T15:31:02.921Z,16.02
2022-10-15T15:33:32.101Z,16.01
2022-10-15T15:36:05.146Z,16.02
2022-10-15T15:41:16.457Z,15.87
2022-10-15T15:43:46.045Z,15.86
2022-10-15T15:46:15.569Z,15.82
2022-10-15T15:48:44.686Z,15.77
2022-10-15T15:51:21.243Z,15.79
2022-10-15T15:53:50.316Z,15.74
2022-10-15T15:56:21.064Z,15.76
2022-10-15T15:58:50.936Z,15.77
2022-10-15T16:01:20.833Z,15.63
2022-10-15T16:03:49.941Z,15.56
2022-10-15T16:06:18.913Z,15.48
2022-10-15T16:08:47.864Z,15.41
2022-10-15T16:11:16.922Z,15.33
2022-10-15T16:13:47.264Z,15.28
2022-10-15T16:16:16.407Z,15.21
2022-10-15T16:18:45.373Z,15.19
2022-10-15T16:21:14.326Z,15.16
2022-10-15T16:23:43.555Z,14.97
2022-10-15T16:26:13.167Z,14.85
2022-10-15T16:28:42.834Z,14.77
2022-10-15T16:31:18.324Z,14.66
2022-10-15T16:33:47.961Z,14.57
2022-10-15T16:36:17.578Z,14.53
2022-10-15T16:38:47.727Z,14.46
2022-10-15T16:41:19.733Z,14.48
2022-10-15T16:43:49.962Z,14.45
2022-10-15T16:46:21.048Z,14.43
2022-10-15T16:48:54.995Z,14.45
2022-10-15T16:51:24.628Z,14.47
2022-10-15T16:53:54.736Z,14.47
2022-10-15T16:56:25.845Z,14.49
2022-10-15T16:58:55.018Z,14.48
2022-10-15T17:01:27.388Z,14.39
2022-10-15T17:03:56.764Z,14.37
2022-10-15T17:06:28.027Z,14.39
2022-10-15T17:08:58.332Z,14.35
2022-10-15T17:11:30.451Z,14.35
2022-10-15T17:14:01.655Z,14.39
2022-10-15T17:16:34.627Z,14.43
2022-10-15T17:19:04.791Z,14.48
2022-10-15T17:21:34.123Z,14.44
2022-10-15T17:24:07.127Z,14.45
2022-10-15T17:26:38.776Z,14.42
2022-10-15T17:29:09.271Z,14.38
2022-10-15T17:31:40.076Z,14.37
2022-10-15T17:34:11.342Z,14.47
2022-10-15T17:36:45.241Z,14.46
2022-10-15T17:39:16.337Z,14.42
2022-10-15T17:41:45.687Z,14.41
2022-10-15T17:44:14.786Z,14.39
2022-10-15T17:46:45.224Z,14.38
2022-10-15T17:49:18.403Z,14.34
2022-10-15T17:51:48.153Z,14.28
2022-10-15T17:54:17.105Z,14.26
2022-10-15T17:56:46.785Z,14.26
2022-10-15T17:59:21.458Z,14.27
2022-10-15T18:02:00.207Z,14.27
2022-10-15T18:04:30.280Z,14.26
2022-10-15T18:06:59.274Z,14.28
2022-10-15T18:09:29.147Z,14.24
2022-10-15T18:12:01.341Z,14.24
2022-10-15T18:14:33.019Z,14.23
2022-10-15T18:17:03.504Z,14.22
2022-10-15T18:19:32.453Z,14.21
2022-10-15T18:22:01.419Z,14.27
2022-10-15T18:24:30.373Z,14.29
2022-10-15T18:27:01.473Z,14.31
2022-10-15T18:29:30.494Z,14.32
2022-10-15T18:31:59.461Z,14.32
2022-10-15T18:34:33.282Z,14.35
2022-10-15T18:37:02.208Z,14.38
2022-10-15T18:39:31.257Z,14.41
2022-10-15T18:42:00.244Z,14.40
2022-10-15T18:44:29.312Z,14.38
2022-10-15T18:46:58.277Z,14.41
2022-10-15T18:49:27.282Z,14.43
2022-10-15T18:52:00.416Z,14.46
2022-10-15T18:54:37.271Z,14.46
2022-10-15T18:57:06.693Z,14.49
2022-10-15T18:59:35.692Z,14.52
2022-10-15T19:02:04.710Z,14.51
2022-10-15T19:04:34.175Z,14.50
2022-10-15T19:07:04.607Z,14.49
2022-10-15T19:09:34.572Z,14.52
2022-10-15T19:12:04.456Z,14.54
2022-10-15T19:14:33.404Z,14.54
2022-10-15T19:17:04.166Z,14.58
2022-10-15T19:19:33.417Z,14.52
2022-10-15T19:22:04.037Z,14.53
2022-10-15T19:24:33.126Z,14.49
2022-10-15T19:27:02.349Z,14.48
2022-10-15T19:29:34.425Z,14.48
2022-10-15T19:32:04.520Z,14.54
2022-10-15T19:34:35.254Z,14.70
2022-10-15T19:37:05.683Z,14.62
2022-10-15T19:39:39.615Z,14.63
2022-10-15T19:42:08.722Z,14.65
2022-10-15T19:44:38.259Z,14.61
2022-10-15T19:47:07.461Z,14.55
2022-10-15T19:49:36.693Z,14.63
2022-10-15T19:52:07.289Z,14.58
2022-10-15T19:54:36.261Z,14.64
2022-10-15T19:57:05.388Z,14.79
2022-10-15T19:59:34.610Z,14.85
2022-10-15T20:02:03.551Z,14.84
2022-10-15T20:04:34.682Z,14.81
2022-10-15T20:07:04.069Z,14.95
2022-10-15T20:09:34.409Z,15.02
2022-10-15T20:12:03.381Z,14.98
2022-10-15T20:14:32.361Z,15.14
2022-10-15T20:17:01.260Z,15.12
2022-10-15T20:19:30.294Z,15.14
2022-10-15T20:21:59.220Z,15.11
2022-10-15T20:24:28.243Z,15.14
2022-10-15T20:26:58.535Z,15.14
2022-10-15T20:29:27.643Z,14.99
2022-10-15T20:32:05.698Z,14.96
2022-10-15T20:34:40.244Z,14.90
2022-10-15T20:37:09.239Z,14.94
2022-10-15T20:39:38.224Z,14.95
2022-10-15T20:42:08.529Z,14.90
2022-10-15T20:44:37.547Z,14.91
2022-10-15T20:47:09.956Z,14.90
2022-10-15T20:49:43.565Z,14.92
2022-10-15T20:52:13.416Z,14.92
2022-10-15T20:54:42.566Z,14.90
2022-10-15T20:57:13.889Z,14.90
2022-10-15T20:59:42.956Z,14.92
2022-10-15T21:02:12.023Z,14.84
2022-10-15T21:04:41.491Z,14.80
2022-10-15T21:07:11.693Z,14.79
2022-10-15T21:09:40.725Z,14.77
2022-10-15T21:12:10.280Z,14.79
2022-10-15T21:14:40.638Z,14.75
2022-10-15T21:17:12.089Z,14.71
2022-10-15T21:19:41.309Z,14.67
2022-10-15T21:22:10.334Z,14.65
2022-10-15T21:24:39.321Z,14.56
2022-10-15T21:27:10.163Z,14.54
2022-10-15T21:29:42.221Z,14.59
2022-10-15T21:32:11.819Z,14.57
2022-10-15T21:37:15.139Z,14.27
2022-10-15T21:39:44.182Z,14.27
2022-10-15T21:42:13.999Z,14.22
2022-10-15T21:44:44.355Z,14.18
2022-10-15T21:47:15.276Z,14.12
2022-10-15T21:49:45.777Z,14.14
2022-10-15T21:52:14.969Z,14.13
2022-10-15T21:54:43.943Z,14.08
2022-10-15T21:57:12.984Z,13.99
2022-10-15T21:59:43.362Z,13.94
2022-10-15T22:02:12.510Z,13.89
2022-10-15T22:04:42.214Z,13.82
2022-10-15T22:07:11.326Z,13.79
2022-10-15T22:09:40.324Z,13.75
2022-10-15T22:12:09.262Z,13.69
2022-10-15T22:14:38.242Z,13.71
2022-10-15T22:17:08.604Z,13.69
2022-10-15T22:19:37.778Z,13.68
2022-10-15T22:22:06.755Z,13.57
2022-10-15T22:24:35.675Z,13.56
2022-10-15T22:27:04.842Z,13.56
2022-10-15T22:29:35.862Z,13.58
2022-10-15T22:32:07.151Z,13.51
2022-10-15T22:34:36.455Z,13.52
2022-10-15T22:37:05.385Z,13.44
2022-10-15T22:39:34.470Z,13.42
2022-10-15T22:42:04.145Z,13.46
2022-10-15T22:44:33.234Z,13.40
2022-10-15T22:47:02.269Z,13.39
2022-10-15T22:49:32.638Z,13.38
2022-10-15T22:52:01.718Z,13.47
2022-10-15T22:54:30.772Z,13.45
2022-10-15T22:57:00.308Z,13.39
2022-10-15T22:59:29.246Z,13.41
2022-10-15T23:01:58.212Z,13.40
2022-10-15T23:04:27.136Z,13.43
2022-10-15T23:06:57.649Z,13.40
2022-10-15T23:09:26.557Z,13.31
2022-10-15T23:11:55.503Z,13.34
2022-10-15T23:14:24.438Z,13.23
2022-10-15T23:16:53.407Z,13.31
2022-10-15T23:19:23.814Z,13.20
2022-10-15T23:21:55.893Z,13.17
2022-10-15T23:24:28.907Z,13.17
2022-10-15T23:26:58.114Z,13.14
2022-10-15T23:29:27.791Z,13.17
2022-10-15T23:31:56.841Z,13.28
2022-10-15T23:34:27.401Z,13.21
2022-10-15T23:36:56.564Z,13.18
2022-10-15T23:39:28.547Z,13.21
2022-10-15T23:41:57.458Z,13.27
2022-10-15T23:44:26.733Z,13.21
2022-10-15T23:46:55.874Z,13.16
2022-10-15T23:49:24.823Z,13.16
2022-10-15T23:51:53.775Z,13.17
2022-10-15T23:54:23.186Z,13.13
2022-10-15T23:56:53.500Z,13.16
2022-10-15T23:59:22.601Z,13.11
